Time;durP1;ratioP1;P1;durP2;ratioP2;P2;SDS_P1;SDS_P2;PMS_P1;PMS_P2;Temp;Humidity;BMP_temperature;BMP_pressure;BME280_temperature;BME280_humidity;BME280_pressure;Samples;Min_cycle;Max_cycle;Signal;HPM_P1;HPM_P2
2022/08/06 00:02:23;;;;;;;0.70;0.60;;;;;;;17.11;90.12;100907.50;4987875;28;20470;-47
2022/08/06 00:04:56;;;;;;;0.67;0.60;;;;;;;17.22;90.19;100915.06;4987092;28;20472;-48
2022/08/06 00:07:23;;;;;;;0.97;0.80;;;;;;;17.12;90.25;100917.31;4981605;28;20898;-49
2022/08/06 00:09:52;;;;;;;0.80;0.63;;;;;;;17.15;90.25;100922.56;4980352;28;20502;-47
2022/08/06 00:12:29;;;;;;;0.80;0.63;;;;;;;16.51;91.47;100928.03;4991322;28;20492;-46
2022/08/06 00:14:59;;;;;;;2.33;0.80;;;;;;;16.71;92.01;100927.19;4991426;28;20993;-47
2022/08/06 00:17:26;;;;;;;0.60;0.60;;;;;;;16.60;91.66;100941.09;4993529;28;20830;-48
2022/08/06 00:19:59;;;;;;;0.97;0.97;;;;;;;16.74;91.68;100929.78;4980467;28;20460;-47
2022/08/06 00:22:26;;;;;;;1.03;0.93;;;;;;;16.70;91.72;100942.44;4982500;28;20446;-47
2022/08/06 00:24:54;;;;;;;0.77;0.60;;;;;;;16.64;91.88;100941.81;4986854;28;20829;-47
2022/08/06 00:27:21;;;;;;;1.07;0.90;;;;;;;16.72;91.91;100942.38;4988657;28;20454;-47
2022/08/06 00:29:54;;;;;;;0.60;0.43;;;;;;;16.47;93.31;100943.41;4986536;28;20471;-47
2022/08/06 00:32:21;;;;;;;0.93;0.70;;;;;;;16.62;92.25;100949.06;5001674;28;20838;-47
2022/08/06 00:34:53;;;;;;;0.80;0.80;;;;;;;16.85;90.94;100952.50;4996210;28;20716;-48
2022/08/06 00:37:19;;;;;;;7.47;1.17;;;;;;;16.85;90.53;100954.31;4991640;28;20461;-47
2022/08/06 00:39:57;;;;;;;0.60;0.40;;;;;;;16.69;90.27;100959.50;4985448;28;20460;-48
2022/08/06 00:42:26;;;;;;;1.03;0.90;;;;;;;16.64;91.15;100964.16;4986857;28;20446;-47
2022/08/06 00:44:53;;;;;;;0.70;0.47;;;;;;;16.79;90.37;100957.28;4984934;28;20519;-48
2022/08/06 00:47:20;;;;;;;0.60;0.50;;;;;;;16.64;90.37;100963.28;4990499;28;20453;-47
2022/08/06 00:50:06;;;;;;;1.00;0.60;;;;;;;16.59;90.51;100972.41;4990772;28;20465;-47
2022/08/06 00:52:33;;;;;;;1.23;0.70;;;;;;;16.41;90.73;100965.13;4979919;28;20493;-47
2022/08/06 00:55:00;;;;;;;0.60;0.40;;;;;;;16.37;91.32;100968.88;4981293;28;20470;-47
2022/08/06 00:57:28;;;;;;;2.90;1.37;;;;;;;16.28;91.31;100970.13;4987641;28;20509;-47
2022/08/06 00:59:55;;;;;;;0.70;0.70;;;;;;;16.13;91.50;100980.59;4992495;28;20958;-47
2022/08/06 01:02:22;;;;;;;0.60;0.40;;;;;;;16.21;91.67;100981.19;4979917;28;20446;-46
2022/08/06 01:04:52;;;;;;;0.60;0.30;;;;;;;16.16;91.61;100975.13;4980265;28;20474;-47
2022/08/06 01:07:32;;;;;;;5.03;0.83;;;;;;;16.21;91.70;100971.31;4981739;28;20508;-48
2022/08/06 01:10:18;;;;;;;0.80;0.70;;;;;;;16.16;91.90;100980.47;4980051;28;20448;-47
2022/08/06 01:12:52;;;;;;;0.80;0.80;;;;;;;16.25;91.72;100975.63;4992363;28;20556;-48
2022/08/06 01:15:18;;;;;;;0.90;0.70;;;;;;;16.29;92.40;100977.22;4979567;28;20464;-46
2022/08/06 01:18:28;;;;;;;0.73;0.73;;;;;;;16.23;92.04;100987.34;4991172;28;20465;-47
2022/08/06 01:21:20;;;;;;;1.37;1.03;;;;;;;16.03;92.65;100980.09;4984656;28;20460;-46
2022/08/06 01:24:34;;;;;;;0.77;0.70;;;;;;;16.18;92.83;100978.63;4981872;28;20486;-47
2022/08/06 01:27:24;;;;;;;0.70;0.50;;;;;;;16.05;93.63;100985.44;4988979;28;20458;-46
2022/08/06 01:30:07;;;;;;;0.70;0.50;;;;;;;15.83;93.45;100988.06;4986727;28;20539;-47
2022/08/06 01:32:40;;;;;;;0.60;0.50;;;;;;;15.81;92.72;100977.41;4996606;28;20563;-46
2022/08/06 01:35:16;;;;;;;0.80;0.70;;;;;;;15.88;92.93;100983.38;4990173;28;20465;-47
2022/08/06 01:38:16;;;;;;;0.57;0.37;;;;;;;15.91;92.52;100985.97;4990620;28;20458;-48
2022/08/06 01:40:47;;;;;;;0.60;0.47;;;;;;;15.68;93.08;100981.50;4986234;28;20449;-46
2022/08/06 01:43:19;;;;;;;0.67;0.50;;;;;;;15.54;93.53;100990.03;4982480;28;20501;-47
2022/08/06 01:46:08;;;;;;;1.60;1.10;;;;;;;15.46;94.30;100994.78;4983584;28;20954;-46
2022/08/06 01:48:38;;;;;;;0.77;0.50;;;;;;;15.35;94.19;100997.91;4992722;28;20538;-46
2022/08/06 01:51:07;;;;;;;1.07;0.83;;;;;;;15.41;94.01;101003.00;4986284;28;20494;-47
2022/08/06 01:53:54;;;;;;;0.90;0.60;;;;;;;15.40;94.16;101000.41;4986301;28;20537;-47
2022/08/06 01:56:36;;;;;;;0.57;0.50;;;;;;;15.44;94.61;101002.03;4984274;28;20508;-48
2022/08/06 01:59:29;;;;;;;0.50;0.40;;;;;;;15.52;93.94;101007.09;4983086;28;20456;-46
2022/08/06 02:01:57;;;;;;;0.60;0.40;;;;;;;15.35;93.97;101008.63;4989387;28;20499;-48
2022/08/06 02:04:30;;;;;;;0.50;0.40;;;;;;;15.27;94.67;101007.13;4986981;28;20482;-47
2022/08/06 02:06:59;;;;;;;0.70;0.60;;;;;;;15.40;93.99;101000.41;4989789;28;20497;-47
2022/08/06 02:09:29;;;;;;;0.90;0.50;;;;;;;15.57;93.52;101003.31;4986862;28;20451;-47
2022/08/06 02:12:14;;;;;;;0.60;0.50;;;;;;;15.48;93.81;101009.00;4982621;28;20634;-46
2022/08/06 02:15:09;;;;;;;0.70;0.43;;;;;;;15.36;94.72;101012.16;4995085;28;20480;-47
2022/08/06 02:17:42;;;;;;;0.60;0.50;;;;;;;15.21;94.13;101018.03;4986617;28;20448;-46
2022/08/06 02:20:34;;;;;;;5.33;1.00;;;;;;;15.20;94.50;101013.63;4983822;28;20456;-46
2022/08/06 02:23:06;;;;;;;0.77;0.50;;;;;;;15.50;93.48;101017.88;4982540;28;20465;-50
2022/08/06 02:25:39;;;;;;;0.70;0.50;;;;;;;15.49;94.16;101013.47;4995341;28;20466;-47
2022/08/06 02:28:08;;;;;;;0.70;0.50;;;;;;;15.52;94.01;101023.19;4982245;28;20951;-46
2022/08/06 02:30:38;;;;;;;0.70;0.53;;;;;;;15.51;93.88;101026.81;5006948;28;20444;-46
2022/08/06 02:33:10;;;;;;;0.60;0.50;;;;;;;15.60;94.31;101027.34;4995829;28;20457;-46
2022/08/06 02:36:05;;;;;;;0.70;0.60;;;;;;;15.51;94.16;101033.03;4982287;28;20446;-47
2022/08/06 02:38:52;;;;;;;0.50;0.40;;;;;;;15.43;94.42;101028.88;4987798;28;20445;-47
2022/08/06 02:41:27;;;;;;;7.23;0.50;;;;;;;15.24;94.41;101037.59;4982222;28;20449;-46
2022/08/06 02:44:01;;;;;;;3.50;0.57;;;;;;;15.45;91.95;101027.88;4990644;28;20560;-47
2022/08/06 02:46:43;;;;;;;11.50;0.90;;;;;;;15.72;90.11;101027.81;4996660;28;20446;-47
2022/08/06 02:49:22;;;;;;;1.73;0.50;;;;;;;15.95;88.56;101038.53;4981944;28;20446;-46
2022/08/06 02:52:04;;;;;;;4.93;0.90;;;;;;;16.06;87.78;101039.00;4987773;28;20481;-48
2022/08/06 02:54:57;;;;;;;2.17;0.50;;;;;;;16.26;86.61;101041.75;4986611;28;20473;-46
2022/08/06 02:57:30;;;;;;;0.77;0.60;;;;;;;16.38;86.66;101035.03;4982289;28;20457;-46
2022/08/06 03:00:18;;;;;;;1.63;1.07;;;;;;;16.46;85.33;101035.59;4981831;28;20489;-47
2022/08/06 03:02:47;;;;;;;0.60;0.40;;;;;;;16.24;85.58;101042.75;4986064;28;20473;-46
2022/08/06 03:05:18;;;;;;;0.50;0.30;;;;;;;16.21;85.49;101041.06;4991097;28;20483;-46
2022/08/06 03:08:08;;;;;;;1.27;0.93;;;;;;;16.35;84.77;101045.03;4994730;28;20458;-46
2022/08/06 03:10:37;;;;;;;0.60;0.40;;;;;;;16.13;85.86;101044.97;4988003;28;20457;-46
2022/08/06 03:13:06;;;;;;;0.80;0.57;;;;;;;16.15;86.38;101056.53;4988080;28;20515;-47
2022/08/06 03:15:37;;;;;;;1.13;1.03;;;;;;;16.19;86.36;101048.31;4993402;28;20449;-46
2022/08/06 03:18:26;;;;;;;0.50;0.40;;;;;;;16.34;85.95;101059.38;4994277;28;20461;-47
2022/08/06 03:20:55;;;;;;;0.70;0.60;;;;;;;16.01;86.49;101051.69;4994564;28;20449;-47
2022/08/06 03:23:23;;;;;;;1.20;0.50;;;;;;;15.99;86.92;101061.63;4981317;28;20472;-48
2022/08/06 03:25:55;;;;;;;0.50;0.37;;;;;;;16.00;87.43;101056.19;4982708;28;20498;-47
2022/08/06 03:28:32;;;;;;;6.93;1.27;;;;;;;16.15;87.43;101057.41;4988584;28;20454;-47
2022/08/06 03:31:01;;;;;;;0.60;0.50;;;;;;;15.95;88.34;101057.31;5007791;28;20524;-49
2022/08/06 03:33:29;;;;;;;1.57;1.00;;;;;;;16.08;88.56;101049.66;4985866;28;21020;-47
2022/08/06 03:36:17;;;;;;;0.57;0.57;;;;;;;15.96;88.98;101053.69;4992605;28;20461;-47
2022/08/06 03:39:01;;;;;;;0.67;0.50;;;;;;;15.97;88.83;101050.94;4994469;28;20549;-47
2022/08/06 03:41:32;;;;;;;7.50;0.70;;;;;;;15.88;89.40;101053.97;4986764;28;20851;-47
2022/08/06 03:44:05;;;;;;;3.23;0.47;;;;;;;16.06;88.95;101057.78;4987877;28;21004;-47
2022/08/06 03:46:42;;;;;;;3.30;0.57;;;;;;;16.27;87.70;101059.59;4988030;28;20450;-47
2022/08/06 03:49:38;;;;;;;0.70;0.50;;;;;;;16.06;88.28;101060.47;4983000;28;20536;-47
2022/08/06 03:52:09;;;;;;;0.80;0.80;;;;;;;15.97;88.53;101060.81;4980376;28;20494;-47
2022/08/06 03:54:44;;;;;;;0.90;0.40;;;;;;;16.09;88.13;101060.34;4985042;28;20471;-47
2022/08/06 03:57:17;;;;;;;0.80;0.40;;;;;;;16.17;87.35;101068.06;4990479;28;20532;-47
2022/08/06 03:59:51;;;;;;;8.23;1.57;;;;;;;15.92;87.62;101063.69;4985875;28;20495;-47
2022/08/06 04:02:32;;;;;;;1.37;0.50;;;;;;;16.07;87.06;101067.56;4980955;28;20457;-47
2022/08/06 04:05:13;;;;;;;0.80;0.50;;;;;;;16.12;87.11;101064.69;4990790;28;20529;-47
2022/08/06 04:07:40;;;;;;;1.10;0.63;;;;;;;15.69;90.15;101069.88;4983973;28;20459;-47
2022/08/06 04:10:22;;;;;;;0.80;0.60;;;;;;;15.82;90.45;101078.34;4987291;28;20533;-47
2022/08/06 04:13:03;;;;;;;0.60;0.60;;;;;;;15.61;91.07;101074.66;4990803;28;20493;-48
2022/08/06 04:15:51;;;;;;;1.00;0.90;;;;;;;15.54;91.89;101072.22;4984377;28;20449;-47
2022/08/06 04:18:22;;;;;;;0.97;0.60;;;;;;;15.48;92.38;101078.66;4989927;28;20455;-47
2022/08/06 04:20:54;;;;;;;1.17;0.93;;;;;;;15.45;92.02;101078.78;4985055;28;20445;-47
2022/08/06 04:23:41;;;;;;;4.57;0.70;;;;;;;15.41;92.69;101077.16;4988720;28;20465;-47
2022/08/06 04:26:13;;;;;;;0.80;0.60;;;;;;;15.30;93.08;101080.22;4989486;28;20515;-47
2022/08/06 04:28:43;;;;;;;0.70;0.50;;;;;;;15.59;92.09;101089.00;4984866;28;20450;-47
2022/08/06 04:31:20;;;;;;;0.50;0.30;;;;;;;15.54;91.81;101086.50;5004073;28;20441;-48
2022/08/06 04:34:08;;;;;;;0.50;0.30;;;;;;;15.58;91.24;101092.63;4980549;28;20479;-47
2022/08/06 04:36:37;;;;;;;1.00;0.50;;;;;;;15.53;91.56;101105.31;4992913;28;20564;-47
2022/08/06 04:39:06;;;;;;;0.90;0.60;;;;;;;15.48;91.46;101104.59;4993066;28;20485;-47
2022/08/06 04:41:35;;;;;;;6.40;0.77;;;;;;;15.33;92.36;101108.69;4984986;28;20447;-47
2022/08/06 04:44:02;;;;;;;1.30;0.97;;;;;;;15.09;92.54;101105.94;4986661;28;20473;-47
2022/08/06 04:46:32;;;;;;;0.63;0.47;;;;;;;15.06;92.50;101102.47;4987117;28;20461;-47
2022/08/06 04:48:59;;;;;;;2.37;0.70;;;;;;;15.07;93.00;101104.22;4986227;28;20466;-48
2022/08/06 04:51:27;;;;;;;2.70;0.87;;;;;;;15.12;92.50;101113.00;4992902;28;20872;-47
2022/08/06 04:54:15;;;;;;;0.60;0.40;;;;;;;15.19;92.25;101116.34;4988295;28;20975;-47
2022/08/06 04:56:43;;;;;;;0.60;0.43;;;;;;;16.27;88.47;101110.56;4988004;28;20457;-48
2022/08/06 04:59:16;;;;;;;0.63;0.57;;;;;;;17.12;85.20;101116.09;4986025;28;20454;-47
2022/08/06 05:01:43;;;;;;;0.90;0.63;;;;;;;17.61;81.99;101116.69;4986960;28;20445;-48
2022/08/06 05:04:28;;;;;;;0.70;0.50;;;;;;;18.13;80.20;101120.59;4986009;28;20484;-48
2022/08/06 05:07:06;;;;;;;9.30;0.90;;;;;;;18.68;77.69;101130.59;4980030;28;20446;-48
2022/08/06 05:09:39;;;;;;;0.80;0.60;;;;;;;18.97;76.85;101130.03;4982293;28;20874;-50
2022/08/06 05:12:27;;;;;;;2.90;0.60;;;;;;;18.92;76.12;101132.97;4979809;28;20485;-48
2022/08/06 05:15:27;;;;;;;0.90;0.50;;;;;;;19.32;74.88;101136.31;4990658;28;20470;-48
2022/08/06 05:18:04;;;;;;;0.73;0.60;;;;;;;19.56;73.83;101139.63;4991919;28;20922;-48
2022/08/06 05:20:35;;;;;;;5.37;0.70;;;;;;;19.82;72.88;101132.84;4981480;28;20460;-48
2022/08/06 05:23:38;;;;;;;2.20;1.17;;;;;;;20.07;72.11;101141.38;4989376;28;20484;-49
2022/08/06 05:26:07;;;;;;;0.60;0.57;;;;;;;19.87;72.41;101138.84;4987329;28;20461;-51
2022/08/06 05:28:39;;;;;;;0.53;0.40;;;;;;;20.13;71.68;101140.16;4980864;28;20548;-49
2022/08/06 05:31:06;;;;;;;0.70;0.50;;;;;;;20.50;71.26;101151.66;4996293;28;20453;-50
2022/08/06 05:33:38;;;;;;;0.80;0.80;;;;;;;20.09;71.80;101143.97;4984647;28;20520;-51
2022/08/06 05:36:11;;;;;;;0.70;0.50;;;;;;;20.22;71.90;101145.06;4995989;28;20456;-51
2022/08/06 05:38:46;;;;;;;1.03;0.40;;;;;;;20.31;71.69;101151.78;4996120;28;21226;-50
2022/08/06 05:41:24;;;;;;;0.90;0.60;;;;;;;20.59;71.79;101148.44;4993606;28;20464;-49
2022/08/06 05:43:55;;;;;;;0.60;0.50;;;;;;;20.80;70.70;101146.34;4995205;28;20480;-50
2022/08/06 05:46:31;;;;;;;0.60;0.30;;;;;;;20.68;70.90;101151.47;4990636;28;20959;-50
2022/08/06 05:49:07;;;;;;;2.77;0.70;;;;;;;21.16;70.44;101149.63;4992526;28;20453;-49
2022/08/06 05:52:09;;;;;;;11.40;1.10;;;;;;;21.05;69.44;101149.38;4992260;28;20555;-50
2022/08/06 05:54:44;;;;;;;0.50;0.40;;;;;;;20.63;70.02;101155.41;4995421;28;20480;-50
2022/08/06 05:57:30;;;;;;;0.80;0.40;;;;;;;20.89;69.42;101159.34;4983975;28;20419;-50
2022/08/06 06:00:11;;;;;;;0.60;0.40;;;;;;;21.41;68.56;101159.91;4991709;28;20446;-50
2022/08/06 06:03:00;;;;;;;4.10;0.60;;;;;;;20.40;70.82;101167.47;5003006;28;20436;-50
2022/08/06 06:05:30;;;;;;;0.50;0.40;;;;;;;21.09;68.86;101163.56;4996467;28;20445;-50
2022/08/06 06:08:18;;;;;;;1.77;0.60;;;;;;;21.26;67.91;101167.09;4996878;28;20444;-51
2022/08/06 06:11:07;;;;;;;1.07;0.50;;;;;;;21.29;68.87;101168.75;5002192;28;20442;-50
2022/08/06 06:13:38;;;;;;;0.70;0.50;;;;;;;20.93;67.87;101167.16;4987921;28;20492;-51
2022/08/06 06:16:32;;;;;;;3.23;0.83;;;;;;;20.91;68.05;101169.09;5000704;28;20481;-51
2022/08/06 06:19:24;;;;;;;6.83;0.50;;;;;;;20.88;68.74;101180.09;4990854;28;20444;-50
2022/08/06 06:22:21;;;;;;;2.77;0.97;;;;;;;20.50;68.05;101181.38;4989286;28;20454;-51
2022/08/06 06:25:01;;;;;;;6.53;0.53;;;;;;;20.53;67.44;101183.91;4989086;28;20857;-51
2022/08/06 06:27:46;;;;;;;1.17;0.67;;;;;;;20.86;66.98;101183.84;5000070;28;20942;-51
2022/08/06 06:30:23;;;;;;;8.67;0.70;;;;;;;20.66;67.31;101176.84;5004105;28;20444;-51
2022/08/06 06:33:15;;;;;;;1.87;0.50;;;;;;;20.47;66.64;101186.97;4990891;28;20494;-52
2022/08/06 06:35:51;;;;;;;0.60;0.50;;;;;;;20.58;65.85;101187.25;4989390;28;20501;-51
2022/08/06 06:38:31;;;;;;;0.70;0.50;;;;;;;20.02;66.58;101180.38;4984482;28;20449;-51
2022/08/06 06:41:25;;;;;;;0.63;0.40;;;;;;;20.18;67.33;101185.81;4987464;28;20458;-52
2022/08/06 06:44:24;;;;;;;6.00;0.70;;;;;;;20.03;67.27;101187.50;4993758;28;20505;-51
2022/08/06 06:47:25;;;;;;;1.13;0.70;;;;;;;20.41;67.40;101191.72;4993806;28;20450;-51
2022/08/06 06:50:02;;;;;;;1.90;0.50;;;;;;;20.07;68.06;101184.56;4993593;28;20454;-48
2022/08/06 06:52:42;;;;;;;1.07;0.30;;;;;;;20.34;67.82;101192.13;4995222;28;20575;-47
2022/08/06 06:55:30;;;;;;;0.60;0.40;;;;;;;20.42;67.09;101187.19;4994067;28;20477;-48
2022/08/06 06:58:35;;;;;;;0.67;0.50;;;;;;;20.78;65.90;101196.91;4987950;28;20458;-48
2022/08/06 07:01:05;;;;;;;1.10;0.67;;;;;;;20.61;66.38;101198.72;4986059;28;20465;-48
2022/08/06 07:03:54;;;;;;;0.50;0.30;;;;;;;20.68;66.09;101194.72;4982698;28;20465;-48
2022/08/06 07:06:22;;;;;;;0.50;0.40;;;;;;;20.79;65.48;101193.25;4995432;28;20828;-49
2022/08/06 07:09:13;;;;;;;0.60;0.40;;;;;;;20.59;65.76;101200.66;4983274;28;20468;-48
2022/08/06 07:12:08;;;;;;;0.57;0.43;;;;;;;20.62;65.65;101196.91;4981687;28;20612;-47
2022/08/06 07:14:49;;;;;;;0.83;0.77;;;;;;;20.44;65.60;101206.91;4981411;28;20470;-49
2022/08/06 07:17:29;;;;;;;0.70;0.60;;;;;;;20.88;64.41;101190.91;4984207;28;20453;-48
2022/08/06 07:20:19;;;;;;;0.60;0.47;;;;;;;20.41;64.76;101207.03;4992806;28;20481;-49
2022/08/06 07:22:47;;;;;;;24.17;0.87;;;;;;;20.72;65.07;101197.28;4982009;28;20446;-49
2022/08/06 07:25:41;;;;;;;0.70;0.70;;;;;;;20.48;64.38;101215.72;4994082;28;20833;-49
2022/08/06 07:28:25;;;;;;;2.10;0.60;;;;;;;20.45;65.81;101211.34;4985027;28;20449;-49
2022/08/06 07:30:55;;;;;;;0.80;0.60;;;;;;;20.69;64.46;101201.88;5007486;28;20468;-49
2022/08/06 07:33:34;;;;;;;0.60;0.40;;;;;;;20.75;63.87;101208.78;4993425;28;20516;-52
2022/08/06 07:36:23;;;;;;;1.53;0.90;;;;;;;20.92;64.07;101211.38;4992592;28;20457;-48
2022/08/06 07:39:04;;;;;;;0.50;0.30;;;;;;;21.08;63.16;101214.06;4994469;28;20450;-49
2022/08/06 07:41:34;;;;;;;0.60;0.40;;;;;;;20.82;63.43;101212.84;4982780;28;20449;-49
2022/08/06 07:44:26;;;;;;;15.33;0.80;;;;;;;21.09;64.04;101198.72;4981079;28;20990;-49
2022/08/06 07:46:58;;;;;;;0.60;0.40;;;;;;;21.00;62.56;101208.25;4994138;28;20464;-49
2022/08/06 07:49:35;;;;;;;20.93;0.83;;;;;;;21.25;62.69;101208.63;4987762;28;20474;-50
2022/08/06 07:52:22;;;;;;;0.50;0.30;;;;;;;20.97;62.11;101206.63;4987583;28;20490;-50
2022/08/06 07:54:54;;;;;;;0.60;0.40;;;;;;;21.12;60.03;101198.56;4985332;28;20481;-48
2022/08/06 07:57:23;;;;;;;3.50;0.40;;;;;;;21.53;60.87;101212.41;4992812;28;20955;-49
2022/08/06 07:59:52;;;;;;;0.60;0.40;;;;;;;21.31;60.41;101206.50;4981866;28;20469;-48
2022/08/06 08:02:23;;;;;;;0.50;0.30;;;;;;;21.60;60.58;101202.94;4993571;28;20446;-49
2022/08/06 08:07:42;;;;;;;0.60;0.40;;;;;;;21.87;57.79;101217.53;4984632;28;20980;-48
2022/08/06 08:10:25;;;;;;;0.50;0.40;;;;;;;21.19;59.07;101213.47;4980444;28;20504;-49
2022/08/06 08:12:56;;;;;;;0.57;0.40;;;;;;;21.45;58.62;101215.56;4980893;28;20529;-49
2022/08/06 08:15:31;;;;;;;1.77;0.50;;;;;;;21.73;58.58;101219.31;4981585;28;20934;-49
2022/08/06 08:17:58;;;;;;;1.03;0.43;;;;;;;21.37;58.93;101214.25;4992336;28;20461;-49
2022/08/06 08:20:28;;;;;;;0.90;0.33;;;;;;;20.80;58.85;101214.78;4982490;28;21054;-49
2022/08/06 08:23:06;;;;;;;2.10;0.30;;;;;;;21.32;57.84;101216.38;4980631;28;20459;-49
2022/08/06 08:25:50;;;;;;;0.80;0.60;;;;;;;21.54;57.95;101215.03;4980917;28;20462;-49
2022/08/06 08:28:17;;;;;;;0.60;0.40;;;;;;;22.10;56.39;101202.63;4987334;28;20458;-49
2022/08/06 08:30:46;;;;;;;1.37;0.50;;;;;;;22.00;55.44;101212.22;4999994;28;20453;-48
2022/08/06 08:33:16;;;;;;;1.23;0.40;;;;;;;22.14;55.36;101209.56;4980785;28;20493;-50
2022/08/06 08:35:45;;;;;;;0.80;0.60;;;;;;;22.34;54.07;101207.44;4980243;28;20450;-49
2022/08/06 08:38:16;;;;;;;1.53;0.50;;;;;;;22.13;54.47;101215.97;4993115;28;20536;-49
2022/08/06 08:40:46;;;;;;;0.70;0.60;;;;;;;22.47;54.32;101216.53;4980636;28;20482;-49
2022/08/06 08:43:19;;;;;;;1.07;0.53;;;;;;;22.24;54.63;101212.59;4984194;28;20525;-48
2022/08/06 08:45:50;;;;;;;0.60;0.43;;;;;;;22.15;54.44;101205.91;4990167;28;20452;-51
2022/08/06 08:48:24;;;;;;;3.13;0.70;;;;;;;22.20;53.02;101212.84;4982199;28;20450;-51
2022/08/06 08:50:54;;;;;;;5.40;0.63;;;;;;;22.55;51.87;101202.53;4986758;28;20450;-50
2022/08/06 08:53:28;;;;;;;0.70;0.40;;;;;;;22.51;52.89;101200.97;4986034;28;20497;-50
2022/08/06 08:56:12;;;;;;;0.90;0.53;;;;;;;22.17;53.27;101205.81;4984342;28;20421;-49
2022/08/06 08:59:01;;;;;;;2.60;0.87;;;;;;;21.91;52.89;101193.84;4986393;28;20451;-50
2022/08/06 09:01:47;;;;;;;1.30;0.50;;;;;;;21.96;52.34;101199.84;4986869;28;20450;-51
2022/08/06 09:04:19;;;;;;;0.50;0.33;;;;;;;22.60;52.52;101200.38;4983123;28;20472;-49
2022/08/06 09:06:50;;;;;;;1.53;0.40;;;;;;;22.46;51.70;101202.13;4979940;28;20963;-49
2022/08/06 09:09:18;;;;;;;0.70;0.30;;;;;;;22.72;49.76;101199.59;4982983;28;20457;-50
2022/08/06 09:11:56;;;;;;;5.90;0.60;;;;;;;22.83;48.64;101198.94;4986523;28;20971;-49
2022/08/06 09:14:45;;;;;;;0.77;0.40;;;;;;;22.55;48.10;101203.38;4986381;28;20500;-50
2022/08/06 09:17:12;;;;;;;0.60;0.40;;;;;;;22.27;49.40;101201.56;4994323;28;20531;-50
2022/08/06 09:19:44;;;;;;;0.83;0.30;;;;;;;22.32;49.13;101206.69;4980930;28;20523;-50
2022/08/06 09:22:10;;;;;;;0.70;0.40;;;;;;;22.47;48.66;101211.13;4983936;28;20470;-54
2022/08/06 09:24:38;;;;;;;0.63;0.53;;;;;;;22.60;49.22;101201.25;4986130;28;20858;-54
2022/08/06 09:27:06;;;;;;;0.50;0.30;;;;;;;22.63;48.85;101201.06;4982761;28;20454;-52
2022/08/06 09:29:56;;;;;;;0.70;0.50;;;;;;;22.81;48.68;101198.13;4985405;28;20419;-54
2022/08/06 09:32:45;;;;;;;0.60;0.40;;;;;;;22.17;49.18;101206.66;4996206;28;20900;-53
2022/08/06 09:35:27;;;;;;;0.70;0.40;;;;;;;22.43;49.55;101209.59;4985082;28;20525;-52
2022/08/06 09:38:13;;;;;;;0.50;0.30;;;;;;;22.75;48.00;101200.28;4992936;28;20464;-53
2022/08/06 09:41:05;;;;;;;0.57;0.43;;;;;;;22.86;45.70;101206.88;4980765;28;20446;-52
2022/08/06 09:43:36;;;;;;;7.10;0.57;;;;;;;22.14;48.93;101198.75;4982362;28;20494;-53
2022/08/06 09:46:36;;;;;;;0.80;0.57;;;;;;;22.50;48.71;101207.38;4986826;28;20442;-53
2022/08/06 09:49:03;;;;;;;2.67;0.47;;;;;;;22.52;48.95;101189.19;4980181;28;20476;-52
2022/08/06 09:51:50;;;;;;;7.30;0.67;;;;;;;22.74;49.14;101192.22;4981985;28;20455;-53
2022/08/06 09:54:18;;;;;;;5.83;0.93;;;;;;;22.75;45.56;101193.97;4986711;28;20580;-54
2022/08/06 09:56:59;;;;;;;1.30;0.60;;;;;;;22.55;47.27;101203.38;4986038;28;20445;-54
2022/08/06 09:59:26;;;;;;;0.50;0.30;;;;;;;22.76;46.70;101202.03;4981400;28;20453;-52
2022/08/06 10:01:58;;;;;;;0.60;0.40;;;;;;;22.54;46.31;101209.78;4979594;28;21051;-51
2022/08/06 10:04:27;;;;;;;0.50;0.30;;;;;;;22.66;45.53;101200.00;4983577;28;20654;-51
2022/08/06 10:07:03;;;;;;;1.03;1.03;;;;;;;22.63;46.31;101192.94;4986281;28;20545;-52
2022/08/06 10:09:37;;;;;;;0.60;0.50;;;;;;;23.02;45.68;101192.19;4984802;28;20450;-53
2022/08/06 10:12:20;;;;;;;1.30;0.60;;;;;;;22.83;45.36;101190.81;4986024;28;20446;-52
2022/08/06 10:14:52;;;;;;;0.53;0.30;;;;;;;22.79;45.92;101187.41;4985937;28;20497;-53
2022/08/06 10:17:23;;;;;;;0.97;0.50;;;;;;;23.19;44.91;101193.81;4992366;28;20540;-53
2022/08/06 10:20:08;;;;;;;0.50;0.30;;;;;;;23.03;45.53;101190.38;4979998;28;20943;-52
2022/08/06 10:22:36;;;;;;;9.70;0.50;;;;;;;23.07;43.14;101189.19;4982409;28;20914;-53
2022/08/06 10:25:04;;;;;;;0.50;0.40;;;;;;;22.67;43.91;101190.91;4989079;28;20501;-52
2022/08/06 10:27:39;;;;;;;0.50;0.30;;;;;;;22.84;44.13;101192.53;4989971;28;20540;-53
2022/08/06 10:30:08;;;;;;;0.50;0.30;;;;;;;23.11;43.48;101185.28;5003141;28;20449;-54
2022/08/06 10:32:35;;;;;;;1.53;0.57;;;;;;;22.95;45.03;101193.59;4999129;28;20455;-53
2022/08/06 10:35:05;;;;;;;0.60;0.40;;;;;;;23.30;43.27;101183.09;4983892;28;20508;-53
2022/08/06 10:37:42;;;;;;;1.13;0.53;;;;;;;23.29;44.11;101184.06;4993435;28;20492;-54
2022/08/06 10:40:18;;;;;;;0.70;0.40;;;;;;;23.12;45.21;101184.31;4984901;28;20446;-54
2022/08/06 10:42:56;;;;;;;2.40;0.40;;;;;;;23.44;42.59;101189.44;4982002;28;20970;-52
2022/08/06 10:45:25;;;;;;;4.90;0.40;;;;;;;23.62;41.77;101180.06;4986552;28;20450;-52
2022/08/06 10:47:53;;;;;;;0.60;0.30;;;;;;;23.12;42.69;101186.16;4988631;28;20458;-54
2022/08/06 10:50:39;;;;;;;0.50;0.30;;;;;;;23.28;41.82;101167.88;4988890;28;20569;-54
2022/08/06 10:53:22;;;;;;;0.50;0.30;;;;;;;23.09;41.53;101173.69;4987373;28;21069;-53
2022/08/06 10:56:11;;;;;;;0.50;0.30;;;;;;;23.33;42.36;101166.63;4984041;28;20453;-54
2022/08/06 10:58:44;;;;;;;0.60;0.30;;;;;;;23.59;42.61;101174.84;4982115;28;20456;-53
2022/08/06 11:01:23;;;;;;;0.77;0.77;;;;;;;23.89;41.57;101182.72;4985740;28;20450;-53
2022/08/06 11:04:07;;;;;;;1.53;0.60;;;;;;;23.63;41.79;101174.53;4988267;28;20472;-53
2022/08/06 11:06:57;;;;;;;0.60;0.30;;;;;;;23.88;41.52;101171.00;4988760;28;20453;-53
2022/08/06 11:09:57;;;;;;;0.50;0.30;;;;;;;23.79;41.18;101168.91;4985977;28;20507;-52
2022/08/06 11:12:48;;;;;;;0.50;0.30;;;;;;;23.49;40.99;101165.56;4986034;28;20945;-53
2022/08/06 11:15:18;;;;;;;1.23;0.50;;;;;;;23.26;41.47;101149.00;4991904;28;20539;-53
2022/08/06 11:17:51;;;;;;;0.60;0.40;;;;;;;23.92;40.88;101150.78;4994738;28;20864;-53
2022/08/06 11:20:36;;;;;;;0.50;0.30;;;;;;;23.87;40.25;101152.94;4981908;28;20457;-54
2022/08/06 11:23:05;;;;;;;0.60;0.30;;;;;;;23.88;40.32;101149.25;4981253;28;20458;-54
2022/08/06 11:25:41;;;;;;;0.60;0.30;;;;;;;24.27;39.59;101147.41;4985573;28;20493;-52
2022/08/06 11:28:14;;;;;;;0.60;0.43;;;;;;;24.18;40.77;101153.50;4988253;28;20662;-53
2022/08/06 11:30:46;;;;;;;0.60;0.40;;;;;;;24.35;40.48;101152.31;5000125;28;20445;-54
2022/08/06 11:33:17;;;;;;;0.80;0.30;;;;;;;24.34;39.21;101146.00;4988130;28;20509;-51
2022/08/06 11:35:48;;;;;;;3.33;0.67;;;;;;;24.43;38.99;101150.78;4988163;28;20477;-51
2022/08/06 11:38:46;;;;;;;2.00;0.60;;;;;;;24.32;39.45;101133.50;4982913;28;20459;-54
2022/08/06 11:41:27;;;;;;;2.00;0.50;;;;;;;24.04;40.72;101140.03;4981164;28;20442;-54
2022/08/06 11:44:18;;;;;;;0.50;0.30;;;;;;;24.08;40.93;101136.09;4981221;28;20516;-53
2022/08/06 11:47:06;;;;;;;0.60;0.40;;;;;;;24.02;39.86;101140.13;4994155;28;20480;-54
2022/08/06 11:49:41;;;;;;;0.60;0.30;;;;;;;24.14;38.76;101125.69;4987248;28;20454;-53
2022/08/06 11:52:44;;;;;;;2.87;0.47;;;;;;;24.06;38.93;101146.22;4987421;28;20449;-53
2022/08/06 11:55:16;;;;;;;0.57;0.30;;;;;;;24.24;38.33;101126.72;4986224;28;20926;-54
2022/08/06 11:58:15;;;;;;;0.53;0.30;;;;;;;24.41;37.44;101130.13;4983129;28;20484;-54
2022/08/06 12:00:56;;;;;;;1.10;0.70;;;;;;;24.26;37.59;101125.75;4981014;28;20486;-52
2022/08/06 12:03:36;;;;;;;1.10;0.40;;;;;;;23.98;38.20;101132.28;4980712;28;20478;-52
2022/08/06 12:06:24;;;;;;;0.60;0.47;;;;;;;24.35;37.50;101122.41;4983365;28;20537;-53
2022/08/06 12:09:31;;;;;;;3.17;0.70;;;;;;;24.46;36.15;101112.47;4980860;28;20456;-52
2022/08/06 12:12:23;;;;;;;2.63;0.43;;;;;;;24.68;37.19;101119.06;4979509;28;21013;-52
2022/08/06 12:14:53;;;;;;;0.63;0.40;;;;;;;24.62;37.81;101124.94;4980266;28;20521;-52
2022/08/06 12:17:25;;;;;;;0.50;0.30;;;;;;;24.47;36.95;101124.22;4993866;28;20524;-52